College Park, MD (20740)

11:17 PM EST on January 30, 2015 (GMT -0500)
Hollywood | Change Station
CLOSE
Current Station
Personal Weather Station
Location: College Park, MD
Elevation: 105 ft
Nearby Weather Stations
Active Advisory: Wind Advisory Active Notice: Public Information Statement

Elev 105 ft 39.01 °N, 76.92 °W | Updated 2 minutes ago

Clear
Clear
21.8 °F
Feels Like 14 °F
N
6.0
Wind Variable Wind from NNE
Gusts 14.0 mph

Today
High -- | Low -- °F
--% Chance of Precip.
Yesterday
High -- | Low -- °F
Precip. -- in
7:16 AM 5:26 PM
Waxing Gibbous, 87% visible
Pressure 30.25 in
Visibility 10.0 miles
Clouds Clear
Windchill 14 °F
Dew Point 9 °F
Humidity 58%
Rainfall 0.05 in
Snow Depth Not available.
UV 0 out of 12
Pollen 1.70 out of 12
Air Quality Not available.
Flu Activity Not available.
METAR KCGS 310410Z AUTO 31016G22KT 10SM CLR M05/M14 A3025 RMK AO1

More Conditions Fewer Conditions

Pressure 30.25 in
Visibility 10.0 miles
Clouds Clear
Windchill 14 °F
Dew Point 9 °F
Humidity 58%
Rainfall 0.05 in
Snow Depth Not available.
UV 0 out of 12
Pollen 1.70 out of 12
Air Quality Not available.
Flu Activity Not available.
METAR KCGS 310410Z AUTO 31016G22KT 10SM CLR M05/M14 A3025 RMK AO1

More Conditions Fewer Conditions

10-Day Weather Forecast

Almanac

Astronomy

Jan. 30, 2015 Rise Set
Actual Time
Civil Twilight
Nautical Twilight
Astronomical Twilight
Moon
Length of Visible Light
Length of Day
Tomorrow will be .
, % of the Moon is Illuminated

Today's Extremes

State Highs State Lows

Community

WunderPhotos

Upload Photos

1,791,999 photos uploaded!

WunderBlogs® & News

Nearby

Air Quality

  Air Quality AQ Index Pollutant
Not available.

Snow Depth

Station Depth Elevation

Earthquake Activity

City Distance Mag. Time & Date
Minimum magnitude displayed is 2.5.

Coastal Water Temperatures

Place Temperature

Nearby Weather Stations